Time;durP1;ratioP1;P1;durP2;ratioP2;P2;SDS_P1;SDS_P2;PMS_P1;PMS_P2;Temp;Humidity;BMP_temperature;BMP_pressure;BME280_temperature;BME280_humidity;BME280_pressure;Samples;Min_cycle;Max_cycle;Signal;HPM_P1;HPM_P2
2023/05/22 00:01:31;;;;;;;29.55;26.58;;;;;;;;;;4976135;28;20378;-85
2023/05/22 00:04:03;;;;;;;29.92;26.23;;;;;;;;;;4995798;28;20047;-85
2023/05/22 00:06:35;;;;;;;29.73;26.05;;;;;;;;;;4976066;28;20052;-85
2023/05/22 00:09:04;;;;;;;30.52;27.42;;;;;;;;;;5014153;28;20439;-86
2023/05/22 00:11:35;;;;;;;27.17;24.52;;;;;;;;;;4968719;28;20079;-85
2023/05/22 00:14:16;;;;;;;28.25;25.48;;;;;;;;;;4995045;28;20069;-85
2023/05/22 00:16:47;;;;;;;28.83;25.88;;;;;;;;;;4971128;28;20481;-85
2023/05/22 00:19:29;;;;;;;28.33;25.42;;;;;;;;;;4992807;28;20490;-86
2023/05/22 00:21:55;;;;;;;29.23;26.13;;;;;;;;;;4994152;28;20080;-86
2023/05/22 00:24:30;;;;;;;29.00;26.10;;;;;;;;;;4991179;28;20485;-84
2023/05/22 00:26:59;;;;;;;26.67;23.85;;;;;;;;;;5007485;28;20116;-85
2023/05/22 00:29:28;;;;;;;27.42;24.63;;;;;;;;;;4974862;28;20132;-84
2023/05/22 00:31:56;;;;;;;29.25;26.20;;;;;;;;;;4990076;28;20532;-85
2023/05/22 00:34:22;;;;;;;29.20;26.05;;;;;;;;;;4989435;28;20174;-85
2023/05/22 00:36:48;;;;;;;27.95;25.08;;;;;;;;;;4972048;28;20585;-85
2023/05/22 00:39:18;;;;;;;30.92;27.83;;;;;;;;;;4990527;28;20041;-85
2023/05/22 00:41:44;;;;;;;29.70;26.73;;;;;;;;;;4984358;28;23458;-85
2023/05/22 00:44:10;;;;;;;30.13;27.13;;;;;;;;;;4967879;28;20045;-85
2023/05/22 00:46:45;;;;;;;28.48;25.58;;;;;;;;;;4971330;28;20417;-85
2023/05/22 00:49:14;;;;;;;30.27;27.10;;;;;;;;;;4985444;28;20044;-85
2023/05/22 00:51:42;;;;;;;29.10;25.95;;;;;;;;;;4984131;28;20049;-85
2023/05/22 00:54:15;;;;;;;30.38;27.23;;;;;;;;;;4975446;28;20374;-85
2023/05/22 00:56:52;;;;;;;30.20;26.90;;;;;;;;;;4990880;28;20114;-85
2023/05/22 00:59:22;;;;;;;30.35;27.30;;;;;;;;;;4972666;28;20611;-85
2023/05/22 01:01:55;;;;;;;29.00;26.10;;;;;;;;;;4967776;28;20385;-85
2023/05/22 01:04:22;;;;;;;29.35;26.42;;;;;;;;;;4989046;28;20085;-85
2023/05/22 01:06:55;;;;;;;30.90;27.60;;;;;;;;;;4972372;28;20127;-85
2023/05/22 01:09:28;;;;;;;30.90;27.67;;;;;;;;;;4986898;28;20048;-85
2023/05/22 01:12:00;;;;;;;29.73;26.92;;;;;;;;;;4994183;28;20604;-85
2023/05/22 01:14:59;;;;;;;28.02;25.08;;;;;;;;;;4985931;28;20598;-84
2023/05/22 01:17:47;;;;;;;28.05;25.42;;;;;;;;;;4950115;28;20057;-85
2023/05/22 01:20:22;;;;;;;29.33;26.40;;;;;;;;;;4975594;28;20772;-85
2023/05/22 01:22:59;;;;;;;29.60;26.65;;;;;;;;;;4984050;28;20322;-85
2023/05/22 01:25:44;;;;;;;27.77;24.88;;;;;;;;;;4982088;28;20040;-85
2023/05/22 01:28:32;;;;;;;27.02;24.33;;;;;;;;;;4987349;28;20081;-86
2023/05/22 01:31:07;;;;;;;29.25;26.30;;;;;;;;;;4987529;28;20080;-85
2023/05/22 01:33:36;;;;;;;27.30;24.65;;;;;;;;;;4982783;28;20067;-85
2023/05/22 01:36:06;;;;;;;28.23;25.35;;;;;;;;;;4964986;28;20053;-85
2023/05/22 01:38:32;;;;;;;27.52;24.80;;;;;;;;;;4984901;28;20037;-85
2023/05/22 01:41:03;;;;;;;28.38;25.25;;;;;;;;;;4988111;28;20048;-85
2023/05/22 01:43:29;;;;;;;29.42;26.48;;;;;;;;;;4985648;28;20144;-85
2023/05/22 01:46:00;;;;;;;27.85;25.15;;;;;;;;;;4972853;28;20057;-85
2023/05/22 01:48:34;;;;;;;27.83;24.83;;;;;;;;;;4971161;28;20045;-85
2023/05/22 01:51:21;;;;;;;28.83;25.90;;;;;;;;;;4976443;28;20175;-85
2023/05/22 01:54:12;;;;;;;27.88;25.17;;;;;;;;;;4995073;28;20574;-85
2023/05/22 02:00:16;;;;;;;;;;;;;;;;;;;;;
2023/05/22 02:03:13;;;;;;;29.05;26.23;;;;;;;;;;4993835;28;20048;-85
2023/05/22 02:06:05;;;;;;;28.52;25.63;;;;;;;;;;4990951;28;20028;-86
2023/05/22 02:15:48;;;;;;;;;;;;;;;;;;;;;
2023/05/22 02:22:01;;;;;;;27.23;24.63;;;;;;;;;;5001614;28;20078;-93
2023/05/22 02:25:12;;;;;;;;;;;;;;;;;;;;;
2023/05/22 02:28:41;;;;;;;;;;;;;;;;;;;;;
2023/05/22 02:50:22;;;;;;;29.15;26.17;;;;;;;;;;4940978;22;20056;-86
2023/05/22 02:52:49;;;;;;;30.52;27.33;;;;;;;;;;5010803;28;20045;-86
2023/05/22 02:55:15;;;;;;;28.85;25.92;;;;;;;;;;5014409;28;20377;-86
2023/05/22 02:57:41;;;;;;;31.48;28.17;;;;;;;;;;5004785;28;20033;-86
2023/05/22 03:00:10;;;;;;;32.42;29.23;;;;;;;;;;4993064;28;20045;-86
2023/05/22 03:02:37;;;;;;;29.65;26.75;;;;;;;;;;5021317;28;20667;-86
2023/05/22 03:05:09;;;;;;;33.88;30.17;;;;;;;;;;5030932;28;20435;-87
2023/05/22 03:07:35;;;;;;;30.17;27.25;;;;;;;;;;5003028;28;20393;-86
2023/05/22 03:10:01;;;;;;;29.08;26.38;;;;;;;;;;5007159;28;20040;-86
2023/05/22 03:12:30;;;;;;;34.30;30.55;;;;;;;;;;5020281;28;20086;-86
2023/05/22 03:14:56;;;;;;;32.75;29.45;;;;;;;;;;5027344;28;20416;-86
2023/05/22 03:17:22;;;;;;;30.65;26.83;;;;;;;;;;5035154;28;20041;-86
2023/05/22 03:19:48;;;;;;;32.35;28.92;;;;;;;;;;5017862;28;20045;-86
2023/05/22 03:22:14;;;;;;;30.27;26.98;;;;;;;;;;5042861;28;20400;-86
2023/05/22 03:24:40;;;;;;;31.15;27.92;;;;;;;;;;4989336;28;20068;-86
2023/05/22 03:27:06;;;;;;;30.80;27.60;;;;;;;;;;5026737;28;20045;-85
2023/05/22 03:29:33;;;;;;;29.98;27.08;;;;;;;;;;5021841;28;20091;-86
2023/05/22 03:31:59;;;;;;;29.92;26.80;;;;;;;;;;5027079;28;20493;-85
2023/05/22 03:34:26;;;;;;;31.75;28.48;;;;;;;;;;5033753;28;20436;-86
2023/05/22 03:36:52;;;;;;;27.17;24.58;;;;;;;;;;4991669;28;20040;-85
2023/05/22 03:39:19;;;;;;;27.88;25.08;;;;;;;;;;5007816;28;20048;-85
2023/05/22 03:41:45;;;;;;;29.80;26.85;;;;;;;;;;5015926;28;20717;-85
2023/05/22 03:44:11;;;;;;;29.23;26.33;;;;;;;;;;5016901;28;21257;-85
2023/05/22 03:46:37;;;;;;;30.23;27.30;;;;;;;;;;5014939;28;20127;-85
2023/05/22 03:49:03;;;;;;;29.88;26.73;;;;;;;;;;5021657;28;20033;-85
2023/05/22 03:51:30;;;;;;;30.52;27.73;;;;;;;;;;4969969;28;20072;-85
2023/05/22 03:53:56;;;;;;;30.88;27.85;;;;;;;;;;4988792;28;20032;-86
2023/05/22 03:56:22;;;;;;;30.13;27.23;;;;;;;;;;5003676;28;20448;-86
2023/05/22 03:58:49;;;;;;;30.27;27.08;;;;;;;;;;5002500;28;20075;-85
2023/05/22 04:01:15;;;;;;;30.95;27.65;;;;;;;;;;4983914;28;20777;-85
2023/05/22 04:03:41;;;;;;;30.17;27.05;;;;;;;;;;4998815;28;20971;-86
2023/05/22 04:06:07;;;;;;;31.58;28.30;;;;;;;;;;4992889;28;20033;-86
2023/05/22 04:08:33;;;;;;;29.05;26.25;;;;;;;;;;4987040;28;20111;-86
2023/05/22 04:11:00;;;;;;;31.65;28.55;;;;;;;;;;4991508;28;20045;-86
2023/05/22 04:13:26;;;;;;;27.63;24.92;;;;;;;;;;4990285;28;20052;-86
2023/05/22 04:15:52;;;;;;;31.33;27.98;;;;;;;;;;5004705;28;21047;-86
2023/05/22 04:18:18;;;;;;;31.58;27.45;;;;;;;;;;5022466;28;20040;-86
2023/05/22 04:20:44;;;;;;;32.13;28.92;;;;;;;;;;4982390;28;21511;-86
2023/05/22 04:23:12;;;;;;;28.10;25.48;;;;;;;;;;4988777;28;21666;-86
2023/05/22 04:25:38;;;;;;;30.80;27.80;;;;;;;;;;4998159;28;20520;-86
2023/05/22 04:28:04;;;;;;;29.23;26.50;;;;;;;;;;5018131;28;20037;-86
2023/05/22 04:30:32;;;;;;;29.15;26.25;;;;;;;;;;5006608;28;20064;-86
2023/05/22 04:32:59;;;;;;;32.83;27.92;;;;;;;;;;4987854;28;20040;-86
2023/05/22 04:35:28;;;;;;;29.10;26.35;;;;;;;;;;4983497;28;20044;-86
2023/05/22 04:37:54;;;;;;;28.67;25.77;;;;;;;;;;5006249;28;20044;-86
2023/05/22 04:40:20;;;;;;;29.38;26.40;;;;;;;;;;5003652;28;20041;-85
2023/05/22 04:42:46;;;;;;;30.40;27.40;;;;;;;;;;4966233;28;20080;-86
2023/05/22 04:45:12;;;;;;;29.60;26.58;;;;;;;;;;5005496;28;20052;-86
2023/05/22 04:47:40;;;;;;;28.67;25.70;;;;;;;;;;4986199;28;20045;-86
2023/05/22 04:50:06;;;;;;;28.45;25.63;;;;;;;;;;4987146;28;20111;-86
2023/05/22 04:52:32;;;;;;;28.52;25.77;;;;;;;;;;5001845;28;20067;-86
2023/05/22 04:54:58;;;;;;;29.23;26.38;;;;;;;;;;5014757;28;20045;-85
2023/05/22 04:57:26;;;;;;;28.38;25.58;;;;;;;;;;4986036;28;20037;-86
2023/05/22 04:59:52;;;;;;;27.97;25.17;;;;;;;;;;5003416;28;20625;-85
2023/05/22 05:02:18;;;;;;;27.98;24.95;;;;;;;;;;5015317;28;20489;-86
2023/05/22 05:04:45;;;;;;;27.85;25.00;;;;;;;;;;5013007;28;22134;-86
2023/05/22 05:07:12;;;;;;;27.52;24.50;;;;;;;;;;5025650;28;20406;-86
2023/05/22 05:09:38;;;;;;;25.63;23.13;;;;;;;;;;5014052;28;20132;-85
2023/05/22 05:12:04;;;;;;;26.08;23.38;;;;;;;;;;5002161;28;20045;-86
2023/05/22 05:14:30;;;;;;;25.52;23.05;;;;;;;;;;5009086;28;20171;-85
2023/05/22 05:16:57;;;;;;;27.13;24.13;;;;;;;;;;5002868;28;20052;-86
2023/05/22 05:19:26;;;;;;;25.85;23.38;;;;;;;;;;5001284;28;20486;-85
2023/05/22 05:21:52;;;;;;;27.63;24.80;;;;;;;;;;5010892;28;20100;-85
2023/05/22 05:24:18;;;;;;;25.90;23.17;;;;;;;;;;5015915;28;20036;-85
2023/05/22 05:26:44;;;;;;;27.10;24.38;;;;;;;;;;4998354;28;21121;-85
2023/05/22 05:29:11;;;;;;;26.15;23.52;;;;;;;;;;5001776;28;20603;-85
2023/05/22 05:31:38;;;;;;;26.98;24.33;;;;;;;;;;4999231;28;20298;-85
2023/05/22 05:34:04;;;;;;;28.23;25.55;;;;;;;;;;4990009;28;20064;-85
2023/05/22 05:36:30;;;;;;;27.70;24.90;;;;;;;;;;5016115;28;20033;-85
2023/05/22 05:38:57;;;;;;;27.38;24.60;;;;;;;;;;5010479;28;20087;-85
2023/05/22 05:41:25;;;;;;;26.73;24.23;;;;;;;;;;5027187;28;20040;-85
2023/05/22 05:43:51;;;;;;;27.70;25.00;;;;;;;;;;4993771;28;20722;-85
2023/05/22 05:46:17;;;;;;;30.73;27.42;;;;;;;;;;5020348;28;20044;-85
2023/05/22 05:48:44;;;;;;;26.60;24.10;;;;;;;;;;4994049;28;20052;-85
2023/05/22 05:51:10;;;;;;;27.65;24.85;;;;;;;;;;5016967;28;20114;-85
2023/05/22 05:53:36;;;;;;;27.95;24.92;;;;;;;;;;5015651;28;20037;-85
2023/05/22 05:56:02;;;;;;;29.92;26.63;;;;;;;;;;4997982;28;20033;-85
2023/05/22 05:58:28;;;;;;;30.10;26.90;;;;;;;;;;4987746;28;20515;-85
2023/05/22 06:00:55;;;;;;;30.05;27.05;;;;;;;;;;4988867;28;20051;-85
2023/05/22 06:03:21;;;;;;;28.77;26.08;;;;;;;;;;5002986;28;20609;-85
2023/05/22 06:05:47;;;;;;;29.40;26.55;;;;;;;;;;4979504;28;20076;-87
2023/05/22 06:08:18;;;;;;;28.58;24.50;;;;;;;;;;4974401;28;20481;-86
2023/05/22 06:10:45;;;;;;;29.92;27.02;;;;;;;;;;4974050;28;20642;-86
2023/05/22 06:13:12;;;;;;;28.42;25.63;;;;;;;;;;4999631;28;20053;-86
2023/05/22 06:15:38;;;;;;;31.15;27.95;;;;;;;;;;4986223;28;20094;-86
2023/05/22 06:18:04;;;;;;;29.63;26.67;;;;;;;;;;5007246;28;20044;-85
2023/05/22 06:20:30;;;;;;;29.60;26.70;;;;;;;;;;4969554;28;20116;-85
2023/05/22 06:22:56;;;;;;;29.30;26.40;;;;;;;;;;5021452;28;20041;-86
2023/05/22 06:25:24;;;;;;;30.30;27.30;;;;;;;;;;5000710;28;20040;-85
2023/05/22 06:27:51;;;;;;;28.33;25.67;;;;;;;;;;5016886;28;20049;-86
2023/05/22 06:30:17;;;;;;;30.23;27.15;;;;;;;;;;5010529;28;20041;-85
2023/05/22 06:32:43;;;;;;;29.13;26.25;;;;;;;;;;4993570;28;20266;-85
2023/05/22 06:35:10;;;;;;;30.42;27.20;;;;;;;;;;5017085;28;20106;-85
2023/05/22 06:37:37;;;;;;;28.55;25.73;;;;;;;;;;4982369;28;20032;-85
2023/05/22 06:40:04;;;;;;;30.23;27.02;;;;;;;;;;4999963;28;20131;-85
2023/05/22 06:42:31;;;;;;;29.27;26.20;;;;;;;;;;5016213;28;20037;-85
2023/05/22 06:44:57;;;;;;;29.80;26.85;;;;;;;;;;5001329;28;20036;-85
2023/05/22 06:47:26;;;;;;;29.85;26.65;;;;;;;;;;4986086;28;20039;-85
2023/05/22 06:49:53;;;;;;;29.63;26.73;;;;;;;;;;5034585;28;20068;-85
2023/05/22 06:52:19;;;;;;;28.25;25.38;;;;;;;;;;5004673;28;20048;-85
2023/05/22 06:54:45;;;;;;;29.83;26.67;;;;;;;;;;5017696;28;21852;-85
2023/05/22 06:57:11;;;;;;;30.77;27.58;;;;;;;;;;4998180;28;20036;-85
2023/05/22 06:59:37;;;;;;;29.67;26.40;;;;;;;;;;5017226;28;20440;-85
2023/05/22 07:02:03;;;;;;;29.83;26.65;;;;;;;;;;5040365;28;20374;-85
2023/05/22 07:04:30;;;;;;;28.70;25.90;;;;;;;;;;5032340;28;20131;-85
2023/05/22 07:06:56;;;;;;;30.77;27.58;;;;;;;;;;5036298;28;20554;-85
2023/05/22 07:09:22;;;;;;;29.60;26.48;;;;;;;;;;5021126;28;20396;-85
2023/05/22 07:11:48;;;;;;;29.55;26.50;;;;;;;;;;5035009;28;20119;-86
2023/05/22 07:14:14;;;;;;;29.10;26.33;;;;;;;;;;5023961;28;20033;-86
2023/05/22 07:16:40;;;;;;;31.25;27.95;;;;;;;;;;5000898;28;20490;-86
2023/05/22 07:19:07;;;;;;;30.05;26.67;;;;;;;;;;4999676;28;20124;-86
2023/05/22 07:21:37;;;;;;;29.08;26.17;;;;;;;;;;5006216;28;20055;-86
2023/05/22 07:24:07;;;;;;;31.25;25.92;;;;;;;;;;4987900;28;20047;-86
2023/05/22 07:26:36;;;;;;;29.23;26.23;;;;;;;;;;5024156;28;20040;-86
2023/05/22 07:29:02;;;;;;;28.90;25.27;;;;;;;;;;5004358;28;20198;-86
2023/05/22 07:31:29;;;;;;;27.50;24.80;;;;;;;;;;4996126;28;20079;-86
2023/05/22 07:33:55;;;;;;;26.20;23.55;;;;;;;;;;5012831;28;20423;-86
2023/05/22 07:36:21;;;;;;;24.67;22.17;;;;;;;;;;5035360;28;20048;-86
2023/05/22 07:38:48;;;;;;;26.95;24.15;;;;;;;;;;5036985;28;20503;-85
2023/05/22 07:41:14;;;;;;;22.63;20.23;;;;;;;;;;5010699;28;20049;-85
2023/05/22 07:43:40;;;;;;;22.17;19.88;;;;;;;;;;4995433;28;20045;-85
2023/05/22 07:46:06;;;;;;;21.27;18.95;;;;;;;;;;5013716;28;20509;-85
2023/05/22 07:48:32;;;;;;;21.88;19.60;;;;;;;;;;5000637;28;20061;-85
2023/05/22 07:50:58;;;;;;;20.17;18.27;;;;;;;;;;5002810;28;20514;-85
2023/05/22 07:53:25;;;;;;;18.60;16.95;;;;;;;;;;5003553;28;20263;-85
2023/05/22 07:55:51;;;;;;;19.25;17.27;;;;;;;;;;5017383;28;20044;-85
2023/05/22 07:58:18;;;;;;;18.52;16.63;;;;;;;;;;5002292;28;20044;-85
2023/05/22 08:00:45;;;;;;;18.42;16.63;;;;;;;;;;4985500;28;20547;-86
2023/05/22 08:03:12;;;;;;;18.35;16.40;;;;;;;;;;5032116;28;20123;-86
2023/05/22 08:05:38;;;;;;;20.10;16.80;;;;;;;;;;5012418;28;20302;-86
2023/05/22 08:08:04;;;;;;;19.35;17.45;;;;;;;;;;4999259;28;20497;-86
2023/05/22 08:10:30;;;;;;;19.30;17.48;;;;;;;;;;5005844;28;20041;-86
2023/05/22 08:13:01;;;;;;;21.77;16.70;;;;;;;;;;5014788;28;20033;-86
2023/05/22 08:15:27;;;;;;;18.00;16.25;;;;;;;;;;4995442;28;20044;-85
2023/05/22 08:17:53;;;;;;;17.92;16.08;;;;;;;;;;4997942;28;20040;-86
2023/05/22 08:20:19;;;;;;;20.25;17.00;;;;;;;;;;5026398;28;20037;-86
2023/05/22 08:22:45;;;;;;;18.40;16.60;;;;;;;;;;5007331;28;22149;-86
2023/05/22 08:25:11;;;;;;;20.50;15.77;;;;;;;;;;4975879;28;20071;-86
2023/05/22 08:27:37;;;;;;;18.65;16.45;;;;;;;;;;5002413;28;20045;-87
2023/05/22 08:30:03;;;;;;;17.27;15.00;;;;;;;;;;4995598;28;20059;-86
2023/05/22 08:32:30;;;;;;;17.70;15.95;;;;;;;;;;5000744;28;20055;-86
2023/05/22 08:34:56;;;;;;;17.75;15.98;;;;;;;;;;4996857;28;20043;-85
2023/05/22 08:37:22;;;;;;;17.00;15.35;;;;;;;;;;5010624;28;20041;-86
2023/05/22 08:39:48;;;;;;;17.48;15.77;;;;;;;;;;4987446;28;20409;-85
2023/05/22 08:42:14;;;;;;;17.08;15.43;;;;;;;;;;4986579;28;20641;-85
2023/05/22 08:44:40;;;;;;;17.35;15.65;;;;;;;;;;5000799;28;20053;-86
2023/05/22 08:47:10;;;;;;;16.63;14.88;;;;;;;;;;4982161;28;20033;-86
2023/05/22 08:49:37;;;;;;;17.10;15.40;;;;;;;;;;4996843;28;20123;-85
2023/05/22 08:52:05;;;;;;;17.13;14.90;;;;;;;;;;4999490;28;20076;-86
2023/05/22 08:54:31;;;;;;;18.05;14.48;;;;;;;;;;4981159;28;20057;-86
2023/05/22 08:56:57;;;;;;;17.25;15.05;;;;;;;;;;4991805;28;20037;-86
2023/05/22 08:59:33;;;;;;;18.25;15.15;;;;;;;;;;4997618;28;20052;-86
2023/05/22 09:02:02;;;;;;;18.63;15.30;;;;;;;;;;4977044;28;20037;-86
2023/05/22 09:04:37;;;;;;;;;;;;;;;;;;4997752;28;20458;-86
2023/05/22 09:07:04;;;;;;;17.95;15.50;;;;;;;;;;5013096;28;20422;-86
2023/05/22 09:09:33;;;;;;;21.77;16.50;;;;;;;;;;4975113;28;20387;-86
2023/05/22 09:12:01;;;;;;;18.17;16.20;;;;;;;;;;4990119;28;20122;-86
2023/05/22 09:14:30;;;;;;;20.83;15.90;;;;;;;;;;4984111;28;20041;-85
2023/05/22 09:16:56;;;;;;;16.30;14.68;;;;;;;;;;4998837;28;20445;-86
2023/05/22 09:19:22;;;;;;;17.42;14.52;;;;;;;;;;4988339;28;20037;-86
2023/05/22 09:21:50;;;;;;;16.48;14.75;;;;;;;;;;4975014;28;20141;-85
2023/05/22 09:24:16;;;;;;;17.00;13.63;;;;;;;;;;4999518;28;20477;-86
2023/05/22 09:26:52;;;;;;;16.30;14.35;;;;;;;;;;5004349;28;20152;-86
2023/05/22 09:29:28;;;;;;;18.45;14.45;;;;;;;;;;5003142;28;20156;-86
2023/05/22 09:31:58;;;;;;;18.70;14.07;;;;;;;;;;4976980;28;20045;-85
2023/05/22 09:34:31;;;;;;;15.65;13.48;;;;;;;;;;4982971;28;20438;-86
2023/05/22 09:37:06;;;;;;;18.55;13.95;;;;;;;;;;4975091;28;20048;-86
2023/05/22 09:39:55;;;;;;;20.25;14.25;;;;;;;;;;4981015;28;20041;-86
2023/05/22 09:42:21;;;;;;;19.35;13.55;;;;;;;;;;4975389;28;20044;-86
2023/05/22 09:44:50;;;;;;;16.55;13.55;;;;;;;;;;4968885;28;20048;-86
2023/05/22 09:47:27;;;;;;;22.25;13.18;;;;;;;;;;4975548;28;20045;-86
2023/05/22 09:49:55;;;;;;;17.40;12.95;;;;;;;;;;4994892;28;20053;-86
2023/05/22 09:52:30;;;;;;;16.80;12.85;;;;;;;;;;4987801;28;20132;-86
2023/05/22 09:55:03;;;;;;;19.75;13.82;;;;;;;;;;4982631;28;20456;-86
2023/05/22 09:57:33;;;;;;;24.00;13.73;;;;;;;;;;4995929;28;20069;-86
2023/05/22 10:00:03;;;;;;;19.77;13.63;;;;;;;;;;5003556;28;20049;-86
2023/05/22 10:02:32;;;;;;;19.50;13.32;;;;;;;;;;4996411;28;20068;-86
2023/05/22 10:04:58;;;;;;;17.60;12.73;;;;;;;;;;4991640;28;20080;-86
2023/05/22 10:07:26;;;;;;;20.10;14.02;;;;;;;;;;5001151;28;20110;-86
2023/05/22 10:10:03;;;;;;;22.70;14.32;;;;;;;;;;4997652;28;20064;-86
2023/05/22 10:12:31;;;;;;;20.80;12.85;;;;;;;;;;5011281;28;20048;-86
2023/05/22 10:14:58;;;;;;;20.05;13.20;;;;;;;;;;5001050;28;20037;-86
2023/05/22 10:17:24;;;;;;;21.67;13.88;;;;;;;;;;4983611;28;20530;-86
2023/05/22 10:19:50;;;;;;;18.52;12.90;;;;;;;;;;4997904;28;20041;-86
2023/05/22 10:22:19;;;;;;;16.17;14.40;;;;;;;;;;4994464;28;20045;-86
2023/05/22 10:24:46;;;;;;;24.52;14.85;;;;;;;;;;5011525;28;20438;-86
2023/05/22 10:27:12;;;;;;;17.95;13.55;;;;;;;;;;4995955;28;20063;-86
2023/05/22 10:29:40;;;;;;;17.23;14.07;;;;;;;;;;4991645;28;20037;-86
2023/05/22 10:32:06;;;;;;;;;;;;;;;;;;4974799;28;20050;-86
2023/05/22 10:34:36;;;;;;;19.77;13.65;;;;;;;;;;5003388;28;19999;-86
2023/05/22 10:37:28;;;;;;;23.40;15.32;;;;;;;;;;4995446;28;20087;-86
2023/05/22 10:40:03;;;;;;;24.92;15.57;;;;;;;;;;4961201;28;20057;-86
2023/05/22 10:42:30;;;;;;;18.08;14.65;;;;;;;;;;4975395;28;20040;-86
2023/05/22 10:44:56;;;;;;;21.70;15.18;;;;;;;;;;4987479;28;20087;-86
2023/05/22 10:47:22;;;;;;;23.35;15.63;;;;;;;;;;4972294;28;20391;-87
2023/05/22 10:49:50;;;;;;;17.25;14.13;;;;;;;;;;4999259;28;20053;-86
2023/05/22 10:52:20;;;;;;;19.38;13.93;;;;;;;;;;4995217;28;20155;-86
2023/05/22 10:54:52;;;;;;;20.40;13.88;;;;;;;;;;4971547;28;20045;-86
2023/05/22 10:57:19;;;;;;;16.13;13.52;;;;;;;;;;4984129;28;20049;-86
2023/05/22 10:59:48;;;;;;;16.27;13.27;;;;;;;;;;4991322;28;20787;-87
2023/05/22 11:02:19;;;;;;;16.88;13.57;;;;;;;;;;4991432;28;22110;-86
2023/05/22 11:04:45;;;;;;;21.77;13.48;;;;;;;;;;4989279;28;20489;-87
2023/05/22 11:07:13;;;;;;;16.35;12.95;;;;;;;;;;4979673;28;20061;-86
2023/05/22 11:09:46;;;;;;;17.85;13.77;;;;;;;;;;4972163;28;21314;-86
2023/05/22 11:12:12;;;;;;;15.85;13.57;;;;;;;;;;4997359;28;20051;-86
2023/05/22 11:14:38;;;;;;;18.02;13.40;;;;;;;;;;5004153;28;20441;-86
2023/05/22 11:17:07;;;;;;;16.70;13.52;;;;;;;;;;4991027;28;20037;-86
2023/05/22 11:19:33;;;;;;;16.00;14.30;;;;;;;;;;4979685;28;20045;-87
2023/05/22 11:25:37;;;;;;;19.65;14.52;;;;;;;;;;4917709;28;20564;-86
2023/05/22 11:28:10;;;;;;;18.25;14.95;;;;;;;;;;4983842;28;20081;-86
2023/05/22 11:30:36;;;;;;;16.38;14.70;;;;;;;;;;4980831;28;20055;-86
2023/05/22 11:33:05;;;;;;;18.50;16.42;;;;;;;;;;4974432;28;20037;-86
2023/05/22 11:36:19;;;;;;;20.40;16.17;;;;;;;;;;5007572;28;20039;-86
2023/05/22 11:38:52;;;;;;;18.92;16.00;;;;;;;;;;4928103;28;23121;-86
2023/05/22 11:41:20;;;;;;;17.83;15.55;;;;;;;;;;4932293;28;20086;-86
2023/05/22 11:43:49;;;;;;;22.50;17.73;;;;;;;;;;4969651;28;20045;-86
2023/05/22 11:46:21;;;;;;;17.80;15.98;;;;;;;;;;4981239;28;20052;-86
2023/05/22 11:51:49;;;;;;;22.63;17.73;;;;;;;;;;4986592;28;20123;-86
2023/05/22 11:54:22;;;;;;;18.95;16.88;;;;;;;;;;4978158;28;20549;-86
2023/05/22 11:56:51;;;;;;;20.60;17.33;;;;;;;;;;4984222;28;20491;-86
2023/05/22 11:59:22;;;;;;;18.40;16.08;;;;;;;;;;4976480;28;20132;-85
2023/05/22 12:01:54;;;;;;;19.48;17.10;;;;;;;;;;4995152;28;20048;-85
2023/05/22 12:04:26;;;;;;;17.23;15.43;;;;;;;;;;4993326;28;20044;-86
2023/05/22 12:07:15;;;;;;;19.20;16.58;;;;;;;;;;4988946;28;20468;-86
2023/05/22 12:09:51;;;;;;;17.75;15.93;;;;;;;;;;4978846;28;20129;-86
2023/05/22 12:12:17;;;;;;;18.50;15.75;;;;;;;;;;4980515;28;20128;-86
2023/05/22 12:14:46;;;;;;;18.70;16.80;;;;;;;;;;4975749;28;21113;-86
2023/05/22 12:17:38;;;;;;;17.52;15.98;;;;;;;;;;4985988;28;20531;-86
2023/05/22 12:20:07;;;;;;;19.08;15.52;;;;;;;;;;4976064;28;21437;-86
2023/05/22 12:22:33;;;;;;;18.10;16.10;;;;;;;;;;4991540;28;20037;-86
2023/05/22 12:25:02;;;;;;;19.23;16.27;;;;;;;;;;4985231;28;20106;-86
2023/05/22 12:27:31;;;;;;;18.00;16.10;;;;;;;;;;4970594;28;20041;-85
2023/05/22 12:30:09;;;;;;;18.33;16.45;;;;;;;;;;4983793;28;20482;-86
2023/05/22 12:32:46;;;;;;;19.25;17.27;;;;;;;;;;4973962;28;20049;-85
2023/05/22 12:35:33;;;;;;;17.27;15.70;;;;;;;;;;4989901;28;20037;-86
2023/05/22 12:38:12;;;;;;;18.98;15.20;;;;;;;;;;4970682;28;20079;-85
2023/05/22 12:40:38;;;;;;;18.02;16.23;;;;;;;;;;4991929;28;20072;-86
2023/05/22 12:43:07;;;;;;;20.08;16.27;;;;;;;;;;4976393;28;20068;-86
2023/05/22 12:45:49;;;;;;;16.38;14.75;;;;;;;;;;4967685;28;20055;-86
2023/05/22 12:48:36;;;;;;;18.50;16.33;;;;;;;;;;4994747;28;20037;-85
2023/05/22 12:51:25;;;;;;;;;;;;;;;;;;;;;
2023/05/22 12:54:06;;;;;;;18.30;16.65;;;;;;;;;;4989601;28;20082;-86
2023/05/22 12:56:35;;;;;;;17.85;16.05;;;;;;;;;;4965418;28;20076;-86
2023/05/22 12:59:03;;;;;;;17.27;15.57;;;;;;;;;;4978239;28;20836;-85
2023/05/22 13:01:33;;;;;;;18.40;16.55;;;;;;;;;;4965857;28;20394;-86
2023/05/22 13:03:59;;;;;;;16.80;15.07;;;;;;;;;;4970928;28;20086;-86
2023/05/22 13:06:26;;;;;;;15.73;14.15;;;;;;;;;;4977926;28;20099;-86
2023/05/22 13:08:54;;;;;;;18.15;16.40;;;;;;;;;;4975055;28;20033;-86
2023/05/22 13:11:22;;;;;;;16.92;15.30;;;;;;;;;;4984920;28;20160;-86
2023/05/22 13:13:50;;;;;;;15.02;13.25;;;;;;;;;;4977021;28;20124;-86
2023/05/22 13:22:15;;;;;;;13.45;12.05;;;;;;;;;;6013399;23;20025;-88
2023/05/22 13:24:41;;;;;;;11.02;10.02;;;;;;;;;;4999522;28;20057;-88
2023/05/22 13:27:10;;;;;;;15.07;13.27;;;;;;;;;;4992263;28;20086;-88
2023/05/22 13:29:36;;;;;;;12.05;10.85;;;;;;;;;;4982283;28;20049;-88
2023/05/22 13:32:02;;;;;;;12.40;10.95;;;;;;;;;;5013496;28;20033;-88
2023/05/22 13:34:28;;;;;;;11.27;10.15;;;;;;;;;;4986045;28;20071;-88
2023/05/22 13:36:55;;;;;;;12.38;10.90;;;;;;;;;;5003575;28;22548;-89
2023/05/22 13:39:30;;;;;;;13.90;12.52;;;;;;;;;;5022815;28;20055;-88
2023/05/22 13:41:56;;;;;;;13.25;12.05;;;;;;;;;;5014022;28;22229;-88
2023/05/22 13:44:22;;;;;;;15.77;13.57;;;;;;;;;;4997204;28;20102;-88
2023/05/22 13:46:48;;;;;;;15.15;13.75;;;;;;;;;;5007296;28;20116;-87
2023/05/22 13:49:14;;;;;;;15.75;13.95;;;;;;;;;;4999137;28;20040;-89
2023/05/22 13:51:41;;;;;;;16.15;14.50;;;;;;;;;;5007812;28;20555;-88
2023/05/22 13:54:10;;;;;;;17.20;15.50;;;;;;;;;;4981040;28;20053;-88
2023/05/22 13:56:36;;;;;;;18.40;16.58;;;;;;;;;;5005284;28;20448;-88
2023/05/22 13:59:03;;;;;;;19.40;17.48;;;;;;;;;;5006905;28;20049;-89
2023/05/22 14:01:30;;;;;;;19.23;17.30;;;;;;;;;;4989568;28;20484;-89
2023/05/22 14:03:56;;;;;;;19.40;17.58;;;;;;;;;;5008403;28;21266;-88
2023/05/22 14:06:23;;;;;;;19.95;18.00;;;;;;;;;;4993401;28;20374;-89
2023/05/22 14:08:49;;;;;;;17.77;16.20;;;;;;;;;;5003254;28;20067;-91
2023/05/22 14:11:15;;;;;;;17.77;16.20;;;;;;;;;;4996603;28;20048;-89
2023/05/22 14:13:42;;;;;;;16.13;14.50;;;;;;;;;;4989600;28;20076;-90
2023/05/22 14:16:08;;;;;;;15.90;14.40;;;;;;;;;;4992334;28;20519;-90
2023/05/22 14:18:34;;;;;;;15.45;14.00;;;;;;;;;;4991674;28;20038;-90
2023/05/22 14:21:00;;;;;;;16.77;15.10;;;;;;;;;;4992473;28;20450;-91
2023/05/22 14:23:26;;;;;;;18.50;15.65;;;;;;;;;;4989476;28;20079;-90
2023/05/22 14:25:52;;;;;;;19.58;15.55;;;;;;;;;;4997327;28;20045;-90
2023/05/22 14:28:18;;;;;;;17.17;15.30;;;;;;;;;;5003561;28;20489;-91
2023/05/22 14:30:45;;;;;;;20.92;15.90;;;;;;;;;;5005460;28;20862;-90
2023/05/22 14:33:11;;;;;;;19.00;15.80;;;;;;;;;;4989347;28;20036;-89
2023/05/22 14:35:39;;;;;;;19.50;15.88;;;;;;;;;;5018207;28;20044;-89
2023/05/22 14:38:06;;;;;;;20.50;15.75;;;;;;;;;;5016780;28;20099;-88
2023/05/22 14:40:34;;;;;;;18.73;16.02;;;;;;;;;;4999429;28;20123;-89
2023/05/22 14:43:00;;;;;;;21.08;17.23;;;;;;;;;;4988165;28;20488;-89
2023/05/22 14:45:36;;;;;;;18.75;16.77;;;;;;;;;;4980273;28;20064;-88
2023/05/22 14:48:08;;;;;;;23.02;18.58;;;;;;;;;;4987268;28;20095;-89
2023/05/22 14:50:34;;;;;;;20.17;18.13;;;;;;;;;;5014717;28;20044;-90
2023/05/22 14:53:00;;;;;;;21.27;18.75;;;;;;;;;;5005929;28;20476;-89
2023/05/22 14:55:30;;;;;;;20.88;17.98;;;;;;;;;;5011197;28;20041;-89
2023/05/22 14:57:56;;;;;;;23.90;19.42;;;;;;;;;;5010555;28;20471;-90
2023/05/22 15:00:22;;;;;;;19.77;17.67;;;;;;;;;;4992836;28;20541;-90
2023/05/22 15:02:49;;;;;;;24.67;19.00;;;;;;;;;;4996001;28;20043;-89
2023/05/22 15:05:15;;;;;;;20.70;18.60;;;;;;;;;;4996735;28;20068;-90
2023/05/22 15:07:41;;;;;;;23.00;18.10;;;;;;;;;;4998352;28;20044;-89
2023/05/22 15:10:07;;;;;;;20.65;17.90;;;;;;;;;;5002208;28;20045;-89
2023/05/22 15:12:33;;;;;;;19.27;17.42;;;;;;;;;;5008793;28;20037;-90
2023/05/22 15:15:00;;;;;;;20.17;17.13;;;;;;;;;;4979483;28;20044;-89
2023/05/22 15:17:26;;;;;;;17.95;16.15;;;;;;;;;;5005707;28;20033;-89
2023/05/22 15:19:52;;;;;;;17.08;15.43;;;;;;;;;;5030566;28;20037;-90
2023/05/22 15:22:21;;;;;;;21.13;16.23;;;;;;;;;;4994061;28;20036;-88